createdAt,value
2023-01-12T00:01:19.260Z,10.68
2023-01-12T00:03:48.843Z,12.43
2023-01-12T00:06:19.593Z,9.50
2023-01-12T00:08:49.460Z,7.75
2023-01-12T00:11:20.459Z,14.30
2023-01-12T00:13:52.687Z,7.80
2023-01-12T00:16:37.407Z,7.50
2023-01-12T00:19:11.758Z,8.75
2023-01-12T00:21:56.511Z,10.88
2023-01-12T00:24:27.168Z,12.75
2023-01-12T00:26:57.485Z,7.22
2023-01-12T00:29:30.544Z,10.27
2023-01-12T00:32:01.189Z,9.67
2023-01-12T00:34:31.185Z,9.38
2023-01-12T00:37:04.017Z,10.65
2023-01-12T00:39:33.709Z,6.68
2023-01-12T00:42:15.755Z,9.13
2023-01-12T00:45:00.414Z,9.45
2023-01-12T00:47:29.964Z,7.32
2023-01-12T00:49:59.557Z,9.95
2023-01-12T00:52:31.208Z,9.70
2023-01-12T00:55:01.737Z,12.10
2023-01-12T00:57:31.355Z,12.52
2023-01-12T01:00:04.023Z,6.65
2023-01-12T01:02:33.643Z,10.52
2023-01-12T01:05:03.232Z,10.95
2023-01-12T01:07:32.866Z,11.98
2023-01-12T01:10:02.465Z,9.63
2023-01-12T01:12:32.135Z,8.43
2023-01-12T01:15:04.307Z,10.05
2023-01-12T01:17:33.910Z,11.68
2023-01-12T01:20:05.096Z,14.30
2023-01-12T01:22:34.717Z,11.05
2023-01-12T01:25:04.276Z,11.93
2023-01-12T01:27:33.829Z,8.35
2023-01-12T01:30:06.244Z,11.40
2023-01-12T01:32:36.219Z,7.15
2023-01-12T01:35:05.818Z,7.47
2023-01-12T01:37:35.415Z,10.10
2023-01-12T01:40:05.017Z,8.70
2023-01-12T01:42:34.571Z,8.52
2023-01-12T01:45:08.429Z,10.57
2023-01-12T01:47:40.786Z,9.02
2023-01-12T01:50:17.374Z,8.40
2023-01-12T01:52:49.488Z,9.10
2023-01-12T01:55:21.516Z,7.45
2023-01-12T01:57:54.606Z,14.27
2023-01-12T02:00:27.443Z,10.85
2023-01-12T02:02:57.525Z,11.38
2023-01-12T02:05:29.086Z,10.00
2023-01-12T02:08:03.204Z,17.70
2023-01-12T02:13:14.579Z,12.48
2023-01-12T02:16:06.607Z,12.23
2023-01-12T02:18:39.262Z,10.77
2023-01-12T02:21:15.318Z,13.75
2023-01-12T02:24:07.122Z,12.40
2023-01-12T02:27:10.695Z,10.75
2023-01-12T02:29:57.864Z,10.32
2023-01-12T02:32:33.000Z,13.18
2023-01-12T02:35:11.441Z,13.02
2023-01-12T02:37:45.203Z,8.80
2023-01-12T02:40:22.281Z,11.98
2023-01-12T02:42:55.964Z,11.07
2023-01-12T02:45:31.567Z,12.20
2023-01-12T02:48:09.222Z,8.25
2023-01-12T02:50:44.616Z,12.07
2023-01-12T02:53:19.266Z,10.95
2023-01-12T02:55:49.549Z,11.88
2023-01-12T02:58:21.622Z,11.27
2023-01-12T03:00:52.529Z,9.20
2023-01-12T03:03:25.542Z,11.10
2023-01-12T03:05:58.091Z,8.32
2023-01-12T03:08:29.025Z,12.18
2023-01-12T03:11:07.616Z,12.00
2023-01-12T03:13:39.068Z,12.20
2023-01-12T03:16:10.144Z,9.75
2023-01-12T03:18:47.224Z,11.40
2023-01-12T03:21:21.685Z,14.95
2023-01-12T03:23:55.474Z,11.40
2023-01-12T03:26:27.912Z,10.55
2023-01-12T03:28:59.926Z,10.43
2023-01-12T03:31:29.573Z,11.50
2023-01-12T03:34:02.005Z,6.93
2023-01-12T03:36:40.058Z,9.65
2023-01-12T03:39:16.372Z,12.63
2023-01-12T03:41:54.171Z,8.70
2023-01-12T03:44:30.265Z,10.63
2023-01-12T03:47:03.074Z,11.70
2023-01-12T03:49:39.390Z,10.98
2023-01-12T03:52:10.443Z,9.50
2023-01-12T03:54:41.277Z,6.63
2023-01-12T03:57:12.239Z,8.68
2023-01-12T03:59:41.982Z,10.50
2023-01-12T04:02:11.615Z,7.53
2023-01-12T04:04:43.786Z,9.20
2023-01-12T04:07:13.485Z,5.32
2023-01-12T04:09:43.028Z,7.53
2023-01-12T04:12:15.953Z,6.75
2023-01-12T04:14:48.193Z,5.03
2023-01-12T04:17:19.231Z,6.40
2023-01-12T04:19:51.747Z,6.90
2023-01-12T04:22:34.375Z,5.75
2023-01-12T04:25:03.981Z,6.15
2023-01-12T04:27:33.565Z,6.88
2023-01-12T04:30:03.131Z,8.57
2023-01-12T04:32:32.711Z,7.85
2023-01-12T04:35:04.886Z,5.72
2023-01-12T04:37:34.797Z,6.43
2023-01-12T04:40:04.344Z,7.30
2023-01-12T04:42:46.726Z,4.72
2023-01-12T04:45:16.280Z,4.82
2023-01-12T04:47:45.869Z,7.35
2023-01-12T04:50:20.828Z,6.85
2023-01-12T04:52:50.366Z,7.90
2023-01-12T04:55:20.073Z,6.13
2023-01-12T04:57:49.677Z,6.85
2023-01-12T05:00:20.351Z,4.40
2023-01-12T05:02:50.257Z,4.15
2023-01-12T05:05:22.459Z,7.78
2023-01-12T05:08:04.307Z,7.50
2023-01-12T05:10:33.877Z,6.60
2023-01-12T05:13:03.453Z,5.47
2023-01-12T05:15:33.021Z,9.07
2023-01-12T05:18:02.580Z,5.50
2023-01-12T05:20:34.705Z,5.10
2023-01-12T05:23:04.335Z,5.22
2023-01-12T05:25:34.128Z,4.00
2023-01-12T05:28:03.907Z,4.13
2023-01-12T05:30:33.566Z,5.47
2023-01-12T05:33:03.198Z,5.30
2023-01-12T05:35:35.330Z,7.60
2023-01-12T05:38:04.899Z,7.53
2023-01-12T05:40:34.469Z,3.25
2023-01-12T05:43:16.519Z,6.82
2023-01-12T05:45:46.091Z,5.45
2023-01-12T05:48:15.685Z,5.05
2023-01-12T05:50:47.823Z,2.88
2023-01-12T05:53:17.408Z,7.15
2023-01-12T05:55:47.052Z,6.63
2023-01-12T05:58:16.658Z,2.95
2023-01-12T06:00:46.716Z,4.93
2023-01-12T06:03:16.280Z,4.78
2023-01-12T06:05:55.918Z,2.00
2023-01-12T06:08:25.500Z,2.42
2023-01-12T06:10:55.046Z,4.28
2023-01-12T06:13:37.169Z,3.85
2023-01-12T06:16:09.398Z,4.13
2023-01-12T06:18:39.942Z,3.88
2023-01-12T06:21:12.700Z,3.85
2023-01-12T06:23:42.426Z,3.00
2023-01-12T06:26:12.511Z,6.15
2023-01-12T06:28:43.196Z,5.28
2023-01-12T06:31:15.284Z,6.10
2023-01-12T06:33:44.865Z,5.97
2023-01-12T06:36:17.115Z,5.43
2023-01-12T06:38:46.684Z,5.00
2023-01-12T06:41:28.773Z,2.45
2023-01-12T06:43:58.372Z,2.97
2023-01-12T06:46:28.779Z,3.47
2023-01-12T06:48:59.325Z,2.90
2023-01-12T06:51:31.465Z,2.63
2023-01-12T06:54:01.492Z,2.33
2023-01-12T06:56:31.127Z,6.55
2023-01-12T06:59:00.668Z,3.00
2023-01-12T07:01:30.339Z,2.30
2023-01-12T07:03:59.988Z,3.63
2023-01-12T07:06:32.112Z,2.65
2023-01-12T07:09:01.664Z,3.70
2023-01-12T07:11:31.230Z,2.17
2023-01-12T07:14:00.840Z,2.38
2023-01-12T07:16:31.112Z,3.20
2023-01-12T07:19:00.817Z,5.22
2023-01-12T07:21:33.003Z,3.67
2023-01-12T07:24:02.747Z,3.67
2023-01-12T07:26:32.315Z,2.78
2023-01-12T07:29:02.031Z,3.40
2023-01-12T07:31:31.664Z,4.72
2023-01-12T07:34:01.271Z,5.43
2023-01-12T07:36:33.418Z,4.28
2023-01-12T07:39:03.283Z,6.18
2023-01-12T07:41:45.307Z,5.45
2023-01-12T07:44:15.843Z,4.13
2023-01-12T07:46:45.654Z,5.00
2023-01-12T07:49:15.498Z,5.68
2023-01-12T07:51:48.021Z,8.40
2023-01-12T07:54:17.626Z,5.68
2023-01-12T07:56:47.184Z,6.20
2023-01-12T07:59:17.734Z,8.25
2023-01-12T08:01:47.409Z,6.22
2023-01-12T08:04:17.276Z,4.65
2023-01-12T08:06:49.436Z,5.47
2023-01-12T08:09:19.014Z,6.32
2023-01-12T08:11:48.585Z,8.88
2023-01-12T08:14:27.520Z,9.43
2023-01-12T08:17:01.627Z,5.53
2023-01-12T08:22:05.456Z,6.47
2023-01-12T08:24:38.632Z,6.00
2023-01-12T08:27:10.099Z,4.40
2023-01-12T08:29:42.126Z,4.18
2023-01-12T08:32:13.158Z,6.10
2023-01-12T08:34:43.814Z,7.93
2023-01-12T08:37:17.246Z,6.43
2023-01-12T08:39:48.672Z,9.45
2023-01-12T08:42:18.543Z,3.67
2023-01-12T08:44:48.277Z,6.70
2023-01-12T08:47:20.091Z,3.22
2023-01-12T08:49:49.690Z,4.22
2023-01-12T08:52:22.670Z,4.38
2023-01-12T08:54:52.807Z,2.60
2023-01-12T08:57:22.369Z,5.55
2023-01-12T08:59:52.000Z,4.03
2023-01-12T09:02:21.647Z,2.53
2023-01-12T09:04:51.319Z,2.33
2023-01-12T09:07:23.551Z,3.95
2023-01-12T09:09:53.151Z,5.25
2023-01-12T09:12:24.429Z,5.47
2023-01-12T09:14:54.205Z,3.92
2023-01-12T09:17:25.957Z,5.85
2023-01-12T09:19:55.541Z,4.38
2023-01-12T09:22:29.690Z,5.78
2023-01-12T09:27:28.631Z,3.50
2023-01-12T09:29:58.176Z,2.90
2023-01-12T09:32:36.160Z,2.67
2023-01-12T09:35:06.458Z,1.92
2023-01-12T09:37:40.507Z,2.88
2023-01-12T09:40:13.240Z,2.72
2023-01-12T09:42:55.285Z,1.27
2023-01-12T09:45:38.283Z,3.55
2023-01-12T09:48:09.379Z,2.63
2023-01-12T09:50:40.244Z,4.07
2023-01-12T09:53:15.536Z,2.85
2023-01-12T09:55:52.771Z,2.53
2023-01-12T09:58:30.882Z,2.33
2023-01-12T10:01:01.528Z,2.47
2023-01-12T10:03:38.358Z,2.95
2023-01-12T10:06:09.564Z,3.63
2023-01-12T10:08:43.331Z,2.58
2023-01-12T10:11:18.466Z,1.65
2023-01-12T10:14:06.969Z,3.03
2023-01-12T10:16:44.495Z,2.30
2023-01-12T10:19:20.550Z,2.17
2023-01-12T10:21:50.519Z,2.80
2023-01-12T10:24:24.202Z,6.70
2023-01-12T10:26:59.902Z,4.07
2023-01-12T10:29:30.011Z,3.80
2023-01-12T10:31:59.618Z,1.40
2023-01-12T10:34:30.359Z,2.85
2023-01-12T10:37:10.445Z,3.28
2023-01-12T10:39:42.773Z,3.35
2023-01-12T10:42:34.110Z,2.55
2023-01-12T10:45:20.805Z,4.28
2023-01-12T10:47:53.596Z,2.78
2023-01-12T10:50:25.716Z,3.28
2023-01-12T10:52:58.878Z,2.90
2023-01-12T10:55:33.550Z,2.10
2023-01-12T10:58:03.473Z,3.03
2023-01-12T11:00:34.204Z,3.28
2023-01-12T11:03:03.874Z,1.77
2023-01-12T11:05:38.459Z,3.13
2023-01-12T11:08:24.414Z,2.70
2023-01-12T11:10:56.768Z,2.58
2023-01-12T11:13:36.589Z,4.88
2023-01-12T11:16:14.564Z,4.10
2023-01-12T11:18:49.015Z,3.42
2023-01-12T11:21:21.210Z,1.83
2023-01-12T11:23:58.655Z,2.10
2023-01-12T11:26:35.607Z,4.82
2023-01-12T11:29:15.836Z,3.30
2023-01-12T11:31:46.173Z,2.35
2023-01-12T11:34:19.698Z,2.45
2023-01-12T11:36:52.009Z,2.33
2023-01-12T11:39:25.183Z,2.65
2023-01-12T11:42:11.676Z,2.73
2023-01-12T11:44:46.273Z,4.13
2023-01-12T11:47:17.561Z,2.85
2023-01-12T11:49:53.259Z,3.63
2023-01-12T11:52:22.981Z,3.97
2023-01-12T11:54:52.600Z,2.05
2023-01-12T11:57:35.823Z,3.35
2023-01-12T12:00:16.484Z,4.43
2023-01-12T12:02:53.797Z,3.25
2023-01-12T12:05:31.241Z,4.28
2023-01-12T12:08:10.755Z,3.33
2023-01-12T12:10:46.216Z,3.20
2023-01-12T12:13:31.148Z,3.80
2023-01-12T12:16:11.294Z,3.33
2023-01-12T12:18:55.052Z,2.90
2023-01-12T12:21:38.821Z,3.65
2023-01-12T12:24:17.936Z,3.03
2023-01-12T12:26:51.320Z,3.53
2023-01-12T12:29:34.390Z,3.03
2023-01-12T12:32:11.843Z,2.20
2023-01-12T12:34:56.380Z,1.85
2023-01-12T12:37:34.663Z,1.83
2023-01-12T12:40:10.099Z,4.85
2023-01-12T12:43:00.086Z,3.35
2023-01-12T12:45:44.698Z,2.33
2023-01-12T12:48:18.577Z,3.10
2023-01-12T12:50:52.941Z,2.85
2023-01-12T12:53:26.826Z,2.33
2023-01-12T12:55:59.317Z,1.27
2023-01-12T12:58:32.056Z,1.77
2023-01-12T13:01:46.575Z,4.72
2023-01-12T13:04:53.833Z,2.70
2023-01-12T13:07:26.153Z,4.55
2023-01-12T13:10:19.961Z,8.20
2023-01-12T13:12:59.043Z,3.17
2023-01-12T13:15:36.107Z,3.13
2023-01-12T13:18:07.928Z,1.27
2023-01-12T13:20:51.439Z,2.40
2023-01-12T13:23:48.872Z,2.83
2023-01-12T13:26:52.305Z,1.60
2023-01-12T13:29:46.648Z,1.65
2023-01-12T13:32:38.359Z,2.72
2023-01-12T13:35:55.848Z,3.65
2023-01-12T13:38:36.938Z,3.58
2023-01-12T13:41:44.251Z,3.85
2023-01-12T13:44:15.610Z,2.95
2023-01-12T13:46:48.382Z,1.65
2023-01-12T13:49:30.678Z,3.15
2023-01-12T13:52:02.623Z,2.58
2023-01-12T13:54:33.562Z,8.98
2023-01-12T13:57:10.659Z,4.32
2023-01-12T13:59:40.421Z,3.13
2023-01-12T14:02:19.846Z,2.85
2023-01-12T14:05:02.923Z,4.43
2023-01-12T14:07:42.943Z,2.17
2023-01-12T14:10:22.175Z,2.20
2023-01-12T14:13:03.098Z,1.50
2023-01-12T14:15:49.888Z,7.03
2023-01-12T14:18:21.119Z,3.70
2023-01-12T14:20:52.321Z,2.45
2023-01-12T14:23:25.029Z,2.47
2023-01-12T14:26:16.700Z,3.05
2023-01-12T14:28:50.452Z,4.85
2023-01-12T14:31:24.631Z,1.45
2023-01-12T14:36:27.821Z,2.20
2023-01-12T14:38:57.848Z,2.83
2023-01-12T14:41:41.314Z,3.03
2023-01-12T14:44:34.560Z,6.20
2023-01-12T14:47:04.141Z,1.55
2023-01-12T14:49:34.970Z,2.45
2023-01-12T14:52:05.529Z,2.85
2023-01-12T14:54:36.691Z,1.88
2023-01-12T14:57:10.533Z,2.08
2023-01-12T14:59:49.123Z,6.47
2023-01-12T15:02:40.518Z,3.17
2023-01-12T15:05:23.185Z,1.98
2023-01-12T15:07:58.853Z,3.10
2023-01-12T15:10:31.901Z,1.92
2023-01-12T15:13:16.755Z,1.65
2023-01-12T15:16:03.845Z,2.95
2023-01-12T15:18:45.928Z,3.67
2023-01-12T15:21:39.840Z,3.63
2023-01-12T15:24:38.267Z,3.20
2023-01-12T15:27:08.271Z,1.33
2023-01-12T15:29:38.277Z,4.60
2023-01-12T15:32:16.608Z,3.95
2023-01-12T15:34:46.155Z,3.30
2023-01-12T15:37:17.730Z,4.13
2023-01-12T15:39:47.314Z,1.50
2023-01-12T15:42:22.120Z,1.88
2023-01-12T15:44:53.473Z,2.17
2023-01-12T15:47:25.650Z,2.38
2023-01-12T15:49:55.234Z,1.08
2023-01-12T15:52:26.504Z,1.30
2023-01-12T15:54:56.330Z,12.77
2023-01-12T15:57:26.007Z,7.93
2023-01-12T15:59:55.604Z,3.40
2023-01-12T16:02:35.467Z,2.53
2023-01-12T16:05:05.396Z,3.40
2023-01-12T16:07:35.043Z,3.08
2023-01-12T16:10:04.608Z,3.90
2023-01-12T16:12:34.310Z,1.40
2023-01-12T16:15:03.976Z,18.10
2023-01-12T16:17:36.321Z,5.47
2023-01-12T16:20:06.284Z,2.30
2023-01-12T16:22:35.854Z,2.17
2023-01-12T16:25:05.541Z,2.97
2023-01-12T16:27:36.191Z,2.35
2023-01-12T16:30:06.720Z,1.55
2023-01-12T16:32:38.913Z,1.90
2023-01-12T16:35:08.697Z,2.47
2023-01-12T16:37:38.347Z,1.92
2023-01-12T16:40:09.317Z,2.35
2023-01-12T16:42:38.900Z,1.77
2023-01-12T16:45:09.481Z,1.20
2023-01-12T16:47:41.736Z,1.48
2023-01-12T16:50:12.336Z,1.65
2023-01-12T16:52:43.295Z,1.38
2023-01-12T16:55:12.887Z,4.80
2023-01-12T16:57:42.745Z,6.32
2023-01-12T17:00:16.344Z,2.72
2023-01-12T17:02:49.298Z,2.67
2023-01-12T17:05:20.377Z,3.05
2023-01-12T17:07:50.496Z,3.80
2023-01-12T17:10:21.244Z,2.38
2023-01-12T17:12:55.114Z,1.60
2023-01-12T17:15:28.989Z,1.50
2023-01-12T17:18:04.979Z,1.35
2023-01-12T17:20:34.896Z,8.75
2023-01-12T17:23:05.580Z,3.85
2023-01-12T17:25:36.223Z,3.10
2023-01-12T17:28:06.038Z,2.13
2023-01-12T17:30:37.947Z,2.17
2023-01-12T17:33:13.351Z,3.80
2023-01-12T17:35:43.219Z,1.80
2023-01-12T17:38:14.525Z,1.80
2023-01-12T17:40:44.116Z,2.22
2023-01-12T17:43:14.679Z,2.45
2023-01-12T17:45:45.420Z,2.83
2023-01-12T17:48:19.277Z,2.65
2023-01-12T17:50:49.383Z,3.30
2023-01-12T17:53:21.729Z,1.55
2023-01-12T17:55:53.051Z,1.80
2023-01-12T17:58:22.951Z,27.30
2023-01-12T18:00:54.850Z,5.03
2023-01-12T18:03:27.488Z,5.63
2023-01-12T18:06:03.090Z,5.38
2023-01-12T18:08:34.846Z,4.93
2023-01-12T18:11:05.563Z,5.00
2023-01-12T18:13:35.278Z,3.05
2023-01-12T18:16:05.243Z,16.25
2023-01-12T18:18:38.785Z,5.70
2023-01-12T18:21:09.118Z,2.10
2023-01-12T18:23:39.560Z,4.00
2023-01-12T18:26:11.021Z,1.75
2023-01-12T18:28:43.588Z,1.73
2023-01-12T18:31:15.113Z,1.60
2023-01-12T18:33:47.916Z,2.10
2023-01-12T18:36:19.687Z,2.10
2023-01-12T18:38:50.851Z,3.58
2023-01-12T18:41:33.312Z,3.20
2023-01-12T18:44:03.972Z,1.60
2023-01-12T18:46:46.041Z,7.78
2023-01-12T18:49:22.832Z,7.82
2023-01-12T18:52:05.009Z,6.32
2023-01-12T18:54:34.932Z,12.02
2023-01-12T18:57:04.643Z,4.05
2023-01-12T18:59:34.295Z,2.20
2023-01-12T19:02:03.911Z,2.58
2023-01-12T19:04:57.759Z,2.55
2023-01-12T19:07:33.859Z,3.43
2023-01-12T19:10:00.971Z,1.80
2023-01-12T19:12:31.516Z,4.22
2023-01-12T19:15:13.663Z,4.38
2023-01-12T19:17:43.204Z,6.00
2023-01-12T19:20:17.510Z,2.60
2023-01-12T19:22:59.635Z,3.47
2023-01-12T19:25:41.854Z,3.55
2023-01-12T19:28:27.950Z,2.58
2023-01-12T19:31:04.900Z,2.15
2023-01-12T19:33:35.189Z,3.60
2023-01-12T19:36:14.144Z,22.52
2023-01-12T19:38:50.525Z,6.00
2023-01-12T19:41:32.766Z,4.97
2023-01-12T19:44:05.417Z,1.90
2023-01-12T19:46:35.024Z,4.35
2023-01-12T19:49:04.538Z,3.40
2023-01-12T19:51:36.795Z,1.90
2023-01-12T19:54:06.441Z,2.58
2023-01-12T19:56:35.983Z,1.50
2023-01-12T19:59:05.685Z,9.88
2023-01-12T20:01:35.379Z,3.88
2023-01-12T20:04:04.899Z,2.03
2023-01-12T20:06:37.020Z,1.70
2023-01-12T20:09:06.704Z,2.78
2023-01-12T20:11:36.419Z,2.70
2023-01-12T20:14:06.155Z,1.33
2023-01-12T20:16:35.706Z,1.40
2023-01-12T20:19:05.783Z,1.83
2023-01-12T20:21:37.997Z,1.48
2023-01-12T20:24:08.279Z,2.17
2023-01-12T20:26:38.988Z,3.00
2023-01-12T20:29:08.581Z,1.50
2023-01-12T20:31:38.696Z,2.05
2023-01-12T20:34:08.350Z,2.55
2023-01-12T20:36:41.240Z,1.90
2023-01-12T20:39:11.540Z,1.60
2023-01-12T20:41:41.721Z,0.90
2023-01-12T20:44:16.508Z,3.30
2023-01-12T20:46:46.453Z,2.78
2023-01-12T20:49:16.114Z,2.10
2023-01-12T20:51:49.487Z,2.60
2023-01-12T20:54:19.174Z,1.70
2023-01-12T20:56:48.694Z,1.58
2023-01-12T20:59:18.217Z,1.98
2023-01-12T21:01:47.889Z,2.05
2023-01-12T21:04:19.353Z,1.88
2023-01-12T21:06:51.489Z,1.30
2023-01-12T21:09:21.054Z,3.45
2023-01-12T21:11:51.240Z,1.70
2023-01-12T21:14:23.289Z,3.72
2023-01-12T21:16:52.872Z,2.75
2023-01-12T21:19:22.472Z,1.55
2023-01-12T21:21:54.600Z,1.88
2023-01-12T21:24:24.228Z,2.92
2023-01-12T21:26:53.896Z,2.17
2023-01-12T21:29:23.642Z,3.08
2023-01-12T21:31:53.240Z,1.27
2023-01-12T21:34:22.859Z,1.55
2023-01-12T21:36:55.001Z,1.77
2023-01-12T21:39:24.526Z,1.42
2023-01-12T21:42:06.519Z,2.28
2023-01-12T21:44:36.167Z,2.60
2023-01-12T21:47:05.927Z,3.50
2023-01-12T21:49:35.443Z,1.80
2023-01-12T21:52:07.819Z,1.48
2023-01-12T21:54:37.315Z,2.00
2023-01-12T21:57:07.614Z,1.98
2023-01-12T21:59:37.169Z,2.47
2023-01-12T22:02:06.839Z,1.02
2023-01-12T22:04:36.521Z,1.55
2023-01-12T22:07:08.677Z,3.75
2023-01-12T22:09:38.205Z,1.80
2023-01-12T22:12:08.240Z,1.73
2023-01-12T22:14:37.751Z,1.02
2023-01-12T22:17:07.800Z,1.85
2023-01-12T22:19:39.401Z,1.65
2023-01-12T22:22:11.752Z,1.20
2023-01-12T22:24:41.388Z,1.00
2023-01-12T22:27:10.909Z,0.93
2023-01-12T22:29:40.416Z,2.17
2023-01-12T22:32:09.978Z,1.25
2023-01-12T22:34:39.471Z,1.50
2023-01-12T22:37:11.542Z,1.50
2023-01-12T22:39:41.048Z,3.20
2023-01-12T22:42:10.598Z,1.30
2023-01-12T22:44:40.149Z,2.78
2023-01-12T22:47:09.651Z,1.58
2023-01-12T22:49:39.193Z,2.53
2023-01-12T22:52:11.512Z,1.45
2023-01-12T22:54:41.094Z,2.22
2023-01-12T22:57:12.374Z,2.78
2023-01-12T22:59:41.873Z,2.88
2023-01-12T23:02:23.913Z,1.60
2023-01-12T23:04:54.163Z,1.30
2023-01-12T23:07:26.599Z,2.03
2023-01-12T23:09:56.388Z,1.77
2023-01-12T23:12:26.103Z,3.13
2023-01-12T23:14:56.229Z,3.92
2023-01-12T23:17:26.463Z,1.70
2023-01-12T23:19:56.169Z,1.42
2023-01-12T23:22:28.442Z,1.52
2023-01-12T23:24:58.270Z,2.22
2023-01-12T23:27:27.991Z,1.15
2023-01-12T23:29:57.722Z,1.27
2023-01-12T23:32:27.400Z,1.67
2023-01-12T23:34:57.086Z,1.42
2023-01-12T23:37:29.353Z,1.58
2023-01-12T23:39:59.000Z,1.15
2023-01-12T23:42:28.783Z,1.35
2023-01-12T23:44:58.506Z,2.58
2023-01-12T23:47:28.894Z,1.42
2023-01-12T23:49:58.645Z,2.10
2023-01-12T23:52:30.960Z,4.28
2023-01-12T23:55:00.637Z,1.25
2023-01-12T23:57:31.130Z,1.10
